Time;durP1;ratioP1;P1;durP2;ratioP2;P2;SDS_P1;SDS_P2;PMS_P1;PMS_P2;Temp;Humidity;BMP_temperature;BMP_pressure;BME280_temperature;BME280_humidity;BME280_pressure;Samples;Min_cycle;Max_cycle;Signal;HPM_P1;HPM_P2
2022/10/28 00:00:34;;;;;;;15.60;5.15;;;;;;;15.43;81.00;101302.44;4148932;28;20041;-68
2022/10/28 00:02:39;;;;;;;12.38;5.90;;;;;;;15.51;81.09;101286.81;4146378;28;20033;-68
2022/10/28 00:04:43;;;;;;;12.20;5.70;;;;;;;15.59;80.27;101302.56;4154296;28;20041;-68
2022/10/28 00:06:46;;;;;;;11.25;5.07;;;;;;;15.40;81.31;101293.69;4151943;28;20092;-67
2022/10/28 00:08:51;;;;;;;13.15;4.32;;;;;;;15.43;81.25;101296.34;4146530;28;20496;-67
2022/10/28 00:11:02;;;;;;;13.18;4.55;;;;;;;15.46;81.01;101292.00;4129980;28;20098;-68
2022/10/28 00:13:08;;;;;;;10.75;4.78;;;;;;;15.50;81.00;101292.91;4147795;28;20034;-68
2022/10/28 00:15:11;;;;;;;9.35;4.85;;;;;;;15.50;80.67;101298.13;4161723;28;20415;-68
2022/10/28 00:17:14;;;;;;;8.82;4.20;;;;;;;15.49;81.13;101299.00;4152975;28;20531;-66
2022/10/28 00:19:17;;;;;;;8.68;4.88;;;;;;;15.52;80.95;101299.91;4145489;28;20037;-66
2022/10/28 00:21:26;;;;;;;10.82;4.75;;;;;;;15.57;80.83;101297.31;4131670;28;20062;-67
2022/10/28 00:23:29;;;;;;;12.05;5.20;;;;;;;15.52;80.93;101306.88;4146949;28;20037;-67
2022/10/28 00:25:32;;;;;;;10.77;5.15;;;;;;;15.50;81.45;101300.75;4153488;28;20033;-67
2022/10/28 00:27:35;;;;;;;10.38;5.22;;;;;;;15.50;81.17;101300.75;4153042;28;20042;-67
2022/10/28 00:29:38;;;;;;;12.00;5.30;;;;;;;15.50;81.51;101300.75;4146633;28;20034;-68
2022/10/28 00:31:41;;;;;;;15.57;5.57;;;;;;;15.57;80.93;101299.06;4147184;28;20042;-67
2022/10/28 00:33:45;;;;;;;9.30;4.18;;;;;;;15.57;81.05;101292.06;4149341;28;20041;-67
2022/10/28 00:35:47;;;;;;;12.15;5.28;;;;;;;15.59;81.12;101295.56;4157696;28;20030;-67
2022/10/28 00:37:54;;;;;;;12.38;4.90;;;;;;;15.64;80.79;101299.13;4143157;28;20396;-67
2022/10/28 00:39:56;;;;;;;9.73;4.10;;;;;;;15.64;80.74;101301.75;4146908;28;20037;-67
2022/10/28 00:42:02;;;;;;;13.57;5.95;;;;;;;15.67;80.87;101303.50;4143666;28;20069;-67
2022/10/28 00:44:42;;;;;;;12.80;4.97;;;;;;;15.68;80.71;101295.66;4163118;28;20041;-68
2022/10/28 00:46:47;;;;;;;8.13;4.80;;;;;;;15.67;80.78;101293.88;4139855;28;20116;-68
2022/10/28 00:48:54;;;;;;;10.43;5.68;;;;;;;15.71;80.40;101290.44;4132505;28;20069;-68
2022/10/28 00:50:57;;;;;;;14.07;5.18;;;;;;;15.74;80.37;101288.69;4147502;28;20038;-67
2022/10/28 00:53:04;;;;;;;11.10;4.55;;;;;;;15.73;80.67;101293.06;4159134;28;20037;-68
2022/10/28 00:55:09;;;;;;;9.27;4.30;;;;;;;15.74;80.39;101281.72;4153236;28;20046;-67
2022/10/28 00:57:15;;;;;;;9.30;4.90;;;;;;;15.73;80.26;101282.56;4147431;28;20045;-68
2022/10/28 00:59:22;;;;;;;12.98;5.43;;;;;;;15.75;80.48;101279.97;4147791;28;20034;-68
2022/10/28 01:01:25;;;;;;;10.57;4.28;;;;;;;15.75;80.53;101274.72;4146381;28;20038;-68
2022/10/28 01:03:28;;;;;;;12.55;5.40;;;;;;;15.79;80.23;101276.53;4150551;28;20033;-67
2022/10/28 01:05:33;;;;;;;12.65;5.88;;;;;;;15.80;80.25;101276.53;4143702;28;20074;-67
2022/10/28 01:07:36;;;;;;;8.88;4.82;;;;;;;15.76;80.30;101274.72;4146028;28;20038;-67
2022/10/28 01:09:41;;;;;;;10.18;5.07;;;;;;;15.74;80.02;101279.09;4147982;28;20038;-67
2022/10/28 01:11:54;;;;;;;9.95;4.03;;;;;;;15.74;80.54;101286.06;4145435;28;20397;-67
2022/10/28 01:14:18;;;;;;;12.15;5.10;;;;;;;15.76;80.02;101284.34;4154517;28;20065;-66
2022/10/28 01:16:29;;;;;;;11.85;5.20;;;;;;;15.74;80.18;101281.72;4140672;28;20092;-67
2022/10/28 01:18:42;;;;;;;8.48;4.43;;;;;;;15.73;80.50;101289.56;4147740;28;20456;-67
2022/10/28 01:21:24;;;;;;;14.90;4.75;;;;;;;15.69;80.43;101284.28;4128433;28;20042;-66
2022/10/28 01:23:35;;;;;;;12.30;4.50;;;;;;;15.70;80.30;101286.03;4152342;28;20041;-67
2022/10/28 01:26:07;;;;;;;13.48;4.55;;;;;;;15.74;80.22;101284.34;4144847;28;20038;-67
2022/10/28 01:28:51;;;;;;;11.23;4.53;;;;;;;15.76;80.07;101277.34;4141422;28;20436;-67
2022/10/28 01:31:29;;;;;;;13.98;4.50;;;;;;;15.79;80.01;101273.91;4129072;28;20049;-67
2022/10/28 01:33:37;;;;;;;9.82;4.45;;;;;;;15.78;80.06;101274.72;4152238;28;20041;-67
2022/10/28 01:35:48;;;;;;;15.05;5.28;;;;;;;15.79;80.15;101279.16;4152106;28;20406;-67
2022/10/28 01:38:04;;;;;;;11.80;5.10;;;;;;;15.80;79.82;101280.88;4137225;28;20077;-67
2022/10/28 01:40:12;;;;;;;12.13;4.68;;;;;;;15.82;80.29;101292.28;4146639;28;20041;-67
2022/10/28 01:42:25;;;;;;;7.88;4.13;;;;;;;15.82;79.79;101287.91;4146652;28;20041;-67
2022/10/28 01:44:34;;;;;;;10.65;5.13;;;;;;;15.82;79.76;101279.16;4171956;28;20036;-67
2022/10/28 01:46:43;;;;;;;12.35;5.63;;;;;;;15.85;79.89;101276.56;4166006;28;20041;-68
2022/10/28 01:48:51;;;;;;;11.98;5.47;;;;;;;15.85;79.88;101273.94;4157641;28;20049;-68
2022/10/28 01:50:59;;;;;;;8.40;4.90;;;;;;;15.83;79.59;101273.94;4160448;28;20053;-67
2022/10/28 01:53:07;;;;;;;10.00;4.80;;;;;;;15.84;80.13;101280.03;4150651;28;20042;-67
2022/10/28 01:55:15;;;;;;;9.80;5.05;;;;;;;15.83;80.21;101268.69;4147507;28;20041;-67
2022/10/28 01:57:19;;;;;;;12.63;4.88;;;;;;;15.83;80.06;101267.81;4144896;28;20057;-67
2022/10/28 01:59:26;;;;;;;9.98;5.13;;;;;;;15.82;79.89;101264.28;4146361;28;20439;-67
2022/10/28 02:01:31;;;;;;;10.43;4.40;;;;;;;15.83;79.78;101265.19;4145181;28;20121;-67
2022/10/28 02:03:36;;;;;;;16.08;4.90;;;;;;;15.84;79.63;101259.06;4159585;28;20093;-67
2022/10/28 02:05:43;;;;;;;9.48;4.47;;;;;;;15.82;79.68;101261.69;4151475;28;20065;-67
2022/10/28 02:07:47;;;;;;;15.90;4.95;;;;;;;15.80;80.21;101263.44;4147139;28;20034;-67
2022/10/28 02:10:01;;;;;;;12.43;4.80;;;;;;;15.77;79.96;101263.38;4145541;28;20041;-67
2022/10/28 02:12:19;;;;;;;13.57;4.07;;;;;;;15.78;79.86;101262.53;4145652;28;20085;-67
2022/10/28 02:14:38;;;;;;;8.13;4.28;;;;;;;15.79;80.09;101260.78;4156879;28;20040;-67
2022/10/28 02:16:48;;;;;;;12.35;4.57;;;;;;;15.79;79.96;101256.41;4146295;28;20443;-67
2022/10/28 02:19:02;;;;;;;7.85;3.90;;;;;;;15.79;79.92;101252.94;4139415;28;20125;-67
2022/10/28 02:21:14;;;;;;;12.70;4.93;;;;;;;15.79;80.02;101250.31;4148635;28;20050;-67
2022/10/28 02:23:23;;;;;;;9.98;4.38;;;;;;;15.80;80.24;101246.78;4145937;28;20034;-67
2022/10/28 02:25:33;;;;;;;7.60;4.00;;;;;;;15.79;80.11;101250.31;4146067;28;20041;-67
2022/10/28 02:27:44;;;;;;;11.20;4.32;;;;;;;15.79;79.90;101253.78;4145194;28;20088;-67
2022/10/28 02:29:53;;;;;;;8.40;4.43;;;;;;;15.79;79.89;101245.94;4147058;28;20552;-67
2022/10/28 02:32:01;;;;;;;12.65;4.95;;;;;;;15.81;79.87;101248.56;4147022;28;20034;-67
2022/10/28 02:34:09;;;;;;;12.50;4.47;;;;;;;15.82;79.88;101250.31;4153359;28;20045;-67
2022/10/28 02:36:16;;;;;;;11.57;4.75;;;;;;;15.81;79.86;101236.34;4146696;28;20037;-67
2022/10/28 02:38:22;;;;;;;13.00;4.13;;;;;;;15.82;80.00;101239.84;4144911;28;20068;-67
2022/10/28 02:40:29;;;;;;;11.18;4.28;;;;;;;15.81;80.05;101236.34;4147062;28;20042;-67
2022/10/28 02:42:36;;;;;;;10.60;4.80;;;;;;;15.81;79.98;101240.69;4163626;28;20060;-67
2022/10/28 02:44:43;;;;;;;9.70;4.78;;;;;;;15.81;79.67;101228.47;4150906;28;20089;-68
2022/10/28 02:46:50;;;;;;;9.93;4.22;;;;;;;15.80;79.87;101234.59;4145356;28;20034;-67
2022/10/28 02:48:57;;;;;;;9.57;4.30;;;;;;;15.75;80.39;101227.53;4146834;28;20096;-67
2022/10/28 02:51:08;;;;;;;13.10;5.05;;;;;;;15.74;80.52;101218.78;4146389;28;20041;-67
2022/10/28 02:53:15;;;;;;;14.77;5.70;;;;;;;15.75;80.37;101214.41;4146064;28;20037;-67
2022/10/28 02:55:20;;;;;;;10.25;4.65;;;;;;;15.74;80.25;101212.66;4143412;28;20404;-68
2022/10/28 02:57:25;;;;;;;11.38;4.43;;;;;;;15.76;80.08;101210.94;4149384;28;20065;-68
2022/10/28 02:59:29;;;;;;;13.63;4.80;;;;;;;15.74;80.47;101215.28;4149267;28;20049;-67
2022/10/28 03:01:32;;;;;;;14.10;4.07;;;;;;;15.70;80.83;101215.25;4147577;28;20492;-67
2022/10/28 03:03:35;;;;;;;11.00;4.25;;;;;;;15.73;80.96;101206.56;4153325;28;20270;-68
2022/10/28 03:05:38;;;;;;;13.10;5.45;;;;;;;15.79;80.21;101198.75;4154527;28;20038;-68
2022/10/28 03:07:42;;;;;;;9.77;3.88;;;;;;;15.76;80.22;101195.22;4148154;28;20034;-68
2022/10/28 03:09:45;;;;;;;12.38;4.65;;;;;;;15.60;81.01;101196.88;4148372;28;20455;-67
2022/10/28 03:11:47;;;;;;;8.45;4.38;;;;;;;15.64;80.84;101193.41;4148242;28;20104;-68
2022/10/28 03:13:50;;;;;;;10.20;4.45;;;;;;;15.71;80.51;101196.06;4150008;28;20100;-68
2022/10/28 03:15:53;;;;;;;6.13;3.63;;;;;;;15.74;80.02;101196.94;4152084;28;20112;-70
2022/10/28 03:17:56;;;;;;;11.70;4.78;;;;;;;15.79;79.85;101193.50;4131632;28;20038;-68
2022/10/28 03:19:59;;;;;;;11.50;5.13;;;;;;;15.77;80.06;101191.69;4146918;28;20093;-69
2022/10/28 03:22:01;;;;;;;13.25;4.40;;;;;;;15.80;80.30;101189.13;4148354;28;20058;-68
2022/10/28 03:24:06;;;;;;;13.43;4.65;;;;;;;15.84;79.79;101180.41;4140623;28;20558;-67
2022/10/28 03:26:09;;;;;;;10.25;4.10;;;;;;;15.83;79.84;101187.41;4156690;28;20128;-67
2022/10/28 03:28:12;;;;;;;8.75;4.30;;;;;;;15.83;79.34;101182.16;4154929;28;20152;-69
2022/10/28 03:30:17;;;;;;;7.22;3.45;;;;;;;15.85;79.23;101183.03;4148567;28;20096;-67
2022/10/28 03:32:20;;;;;;;9.60;3.70;;;;;;;15.86;78.91;101184.78;4149313;28;20104;-67
2022/10/28 03:34:23;;;;;;;10.23;5.28;;;;;;;15.82;79.10;101187.41;4155074;28;20041;-67
2022/10/28 03:36:26;;;;;;;11.20;4.05;;;;;;;15.80;79.51;101178.63;4147754;28;20395;-68
2022/10/28 03:38:29;;;;;;;10.18;4.20;;;;;;;15.87;78.77;101169.91;4148052;28;20072;-67
2022/10/28 03:40:34;;;;;;;9.13;4.40;;;;;;;15.92;78.56;101176.06;4143472;28;20034;-67
2022/10/28 03:42:37;;;;;;;14.65;4.00;;;;;;;15.89;78.40;101178.69;4155003;28;20037;-67
2022/10/28 03:44:42;;;;;;;12.70;4.25;;;;;;;15.93;77.60;101187.44;4151407;28;20092;-67
2022/10/28 03:46:45;;;;;;;11.85;4.30;;;;;;;15.93;77.66;101183.06;4155416;28;20064;-68
2022/10/28 03:48:48;;;;;;;11.90;3.60;;;;;;;15.98;77.04;101185.72;4155048;28;20038;-68
2022/10/28 03:50:52;;;;;;;13.05;3.97;;;;;;;16.03;76.28;101186.59;4139852;28;20038;-67
2022/10/28 03:52:55;;;;;;;10.45;4.65;;;;;;;15.99;76.03;101190.06;4142640;28;20034;-68
2022/10/28 03:54:58;;;;;;;11.93;4.03;;;;;;;16.08;75.80;101191.84;4145022;28;20038;-68
2022/10/28 03:57:02;;;;;;;11.57;3.92;;;;;;;16.15;75.52;101191.00;4160256;28;20069;-68
2022/10/28 03:59:05;;;;;;;9.23;3.58;;;;;;;16.21;75.44;101191.03;4145096;28;20038;-68
2022/10/28 04:01:08;;;;;;;12.40;4.18;;;;;;;16.26;75.12;101196.28;4148396;28;20045;-67
2022/10/28 04:03:11;;;;;;;12.35;3.72;;;;;;;16.25;74.58;101192.78;4137271;28;20046;-68
2022/10/28 04:05:13;;;;;;;10.98;4.00;;;;;;;16.31;74.67;101199.78;4141918;28;20407;-68
2022/10/28 04:07:16;;;;;;;14.35;4.65;;;;;;;16.31;74.14;101187.56;4146768;28;20038;-68
2022/10/28 04:09:19;;;;;;;9.43;4.28;;;;;;;16.34;74.08;101191.91;4138088;28;20483;-68
2022/10/28 04:11:22;;;;;;;12.63;4.10;;;;;;;16.35;73.85;101184.06;4147077;28;20084;-68
2022/10/28 04:13:26;;;;;;;7.75;3.67;;;;;;;16.39;73.66;101177.94;4129564;28;20238;-68
2022/10/28 04:15:29;;;;;;;9.23;3.30;;;;;;;16.42;73.46;101181.47;4143300;28;20044;-68
2022/10/28 04:17:34;;;;;;;9.25;3.65;;;;;;;16.34;73.90;101184.94;4171704;28;20095;-68
2022/10/28 04:19:37;;;;;;;16.40;4.00;;;;;;;16.30;73.88;101184.94;4143713;28;20117;-67
2022/10/28 04:21:40;;;;;;;12.13;4.15;;;;;;;16.29;73.96;101184.03;4141538;28;20038;-68
2022/10/28 04:23:43;;;;;;;10.93;3.75;;;;;;;16.32;73.77;101188.41;4145671;28;20140;-68
2022/10/28 04:25:46;;;;;;;9.73;3.53;;;;;;;16.32;73.95;101178.78;4144902;28;20038;-68
2022/10/28 04:27:49;;;;;;;12.90;4.10;;;;;;;16.30;73.66;101193.66;4164417;28;20026;-67
2022/10/28 04:29:53;;;;;;;7.65;3.38;;;;;;;16.30;73.61;101196.28;4150267;28;20034;-68
2022/10/28 04:31:56;;;;;;;14.75;4.22;;;;;;;16.24;73.71;101198.91;4148056;28;20045;-68
2022/10/28 04:33:59;;;;;;;7.40;2.88;;;;;;;16.21;73.51;101204.16;4147338;28;20042;-67
2022/10/28 04:36:01;;;;;;;9.20;3.28;;;;;;;16.17;73.74;101207.63;4148768;28;20034;-68
2022/10/28 04:38:04;;;;;;;9.77;3.80;;;;;;;16.07;73.84;101218.97;4161036;28;20034;-68
2022/10/28 04:40:08;;;;;;;13.50;3.80;;;;;;;16.01;74.08;101218.06;4149246;28;20049;-67
2022/10/28 04:42:11;;;;;;;9.15;3.90;;;;;;;15.94;74.35;101221.53;4147767;28;20038;-67
2022/10/28 04:44:14;;;;;;;10.95;4.03;;;;;;;15.96;74.33;101222.44;4143093;28;20041;-69
2022/10/28 04:46:18;;;;;;;10.35;3.53;;;;;;;15.98;74.33;101217.19;4149866;28;20045;-67
2022/10/28 04:48:21;;;;;;;17.52;4.75;;;;;;;16.08;73.93;101215.44;4162379;28;20553;-68
2022/10/28 04:50:32;;;;;;;10.93;4.45;;;;;;;16.11;73.73;101215.50;4153460;28;20053;-66
2022/10/28 04:52:45;;;;;;;10.55;3.65;;;;;;;16.09;73.50;101209.34;4145146;28;20041;-67
2022/10/28 04:54:47;;;;;;;9.80;4.45;;;;;;;16.11;73.65;101211.09;4146506;28;20108;-67
2022/10/28 04:56:50;;;;;;;10.27;4.03;;;;;;;16.09;73.44;101211.97;4149210;28;20096;-67
2022/10/28 04:58:53;;;;;;;12.52;4.22;;;;;;;16.10;73.53;101201.47;4157178;28;20163;-68
2022/10/28 05:00:56;;;;;;;10.23;3.97;;;;;;;16.04;73.57;101204.94;4144705;28;20404;-68
2022/10/28 05:03:02;;;;;;;10.60;3.67;;;;;;;16.02;73.69;101204.09;4145264;28;20034;-68
2022/10/28 05:05:06;;;;;;;11.32;3.38;;;;;;;15.97;74.12;101205.78;4146294;28;20046;-68
2022/10/28 05:07:09;;;;;;;10.52;3.70;;;;;;;15.91;74.17;101197.91;4147734;28;20435;-68
2022/10/28 05:09:12;;;;;;;13.95;4.40;;;;;;;15.77;74.58;101210.03;4147402;28;20065;-68
2022/10/28 05:11:15;;;;;;;9.38;3.10;;;;;;;15.66;74.92;101217.88;4142702;28;20034;-68
2022/10/28 05:13:18;;;;;;;15.05;4.35;;;;;;;15.65;75.09;101222.25;4143115;28;20543;-68
2022/10/28 05:15:21;;;;;;;12.38;4.22;;;;;;;15.65;75.11;101205.63;4143080;28;20049;-68
2022/10/28 05:17:24;;;;;;;10.98;4.45;;;;;;;15.65;75.17;101214.38;4147120;28;20173;-68
2022/10/28 05:19:28;;;;;;;12.32;4.35;;;;;;;15.64;75.16;101209.13;4148293;28;20040;-68
2022/10/28 05:21:31;;;;;;;10.02;3.80;;;;;;;15.62;75.40;101208.22;4149131;28;20030;-68
2022/10/28 05:23:34;;;;;;;9.80;4.40;;;;;;;15.61;75.49;101207.38;4153584;28;20034;-68
2022/10/28 05:25:37;;;;;;;9.48;3.83;;;;;;;15.60;75.97;101207.34;4127524;28;20046;-68
2022/10/28 05:27:40;;;;;;;9.32;3.60;;;;;;;15.61;75.86;101210.00;4133253;28;20077;-68
2022/10/28 05:29:43;;;;;;;13.55;4.07;;;;;;;15.52;75.55;101212.53;4153592;28;20025;-68
2022/10/28 05:31:46;;;;;;;9.32;3.92;;;;;;;15.52;76.07;101204.66;4150615;28;20125;-68
2022/10/28 05:33:49;;;;;;;11.05;5.10;;;;;;;15.53;75.73;101196.81;4141827;28;20050;-68
2022/10/28 05:35:53;;;;;;;14.00;4.18;;;;;;;15.58;75.86;101194.25;4121548;28;20491;-68
2022/10/28 05:37:56;;;;;;;13.82;4.60;;;;;;;15.51;75.56;101192.47;4145212;28;20080;-68
2022/10/28 05:39:59;;;;;;;12.70;4.47;;;;;;;15.47;75.73;101180.19;4139718;28;20092;-68
2022/10/28 05:42:01;;;;;;;8.05;3.58;;;;;;;15.44;75.77;101186.28;4144382;28;20446;-68
2022/10/28 05:44:05;;;;;;;11.32;4.40;;;;;;;15.43;75.75;101186.28;4143441;28;20068;-68
2022/10/28 05:46:09;;;;;;;10.50;4.07;;;;;;;15.41;76.32;101182.78;4157351;28;20048;-68
2022/10/28 05:48:12;;;;;;;8.90;4.07;;;;;;;15.34;76.05;101185.34;4152450;28;20041;-68
2022/10/28 05:50:17;;;;;;;9.13;3.88;;;;;;;15.34;76.62;101177.50;4147649;28;20050;-68
2022/10/28 05:52:21;;;;;;;9.98;4.30;;;;;;;15.36;76.90;101173.16;4147511;28;20076;-68
2022/10/28 05:54:24;;;;;;;11.80;4.40;;;;;;;15.34;76.77;101176.63;4129433;28;20264;-68
2022/10/28 05:56:27;;;;;;;14.40;4.22;;;;;;;15.35;76.69;101175.78;4143579;28;20048;-68
2022/10/28 05:58:30;;;;;;;9.50;4.03;;;;;;;15.36;77.03;101167.03;4147314;28;20088;-68
2022/10/28 06:00:33;;;;;;;13.00;5.07;;;;;;;15.38;76.88;101161.81;4162586;28;20411;-67
2022/10/28 06:02:38;;;;;;;6.18;3.45;;;;;;;15.39;76.79;101167.06;4162715;28;20140;-67
2022/10/28 06:04:41;;;;;;;11.57;3.85;;;;;;;15.41;76.48;101161.84;4147173;28;20454;-68
2022/10/28 06:06:43;;;;;;;11.43;4.38;;;;;;;15.43;76.75;101173.19;4147572;28;20325;-68
2022/10/28 06:08:48;;;;;;;8.73;4.60;;;;;;;15.43;76.36;101168.81;4146298;28;20125;-67
2022/10/28 06:10:52;;;;;;;11.52;4.78;;;;;;;15.41;76.72;101169.69;4146280;28;20038;-67
2022/10/28 06:12:58;;;;;;;12.30;5.38;;;;;;;15.42;76.72;101171.41;4146141;28;20491;-67
2022/10/28 06:15:01;;;;;;;16.95;5.35;;;;;;;15.49;76.54;101178.44;4147041;28;20570;-68
2022/10/28 06:17:04;;;;;;;14.20;4.45;;;;;;;15.53;76.22;101170.59;4147483;28;20041;-67
2022/10/28 06:19:06;;;;;;;15.57;4.90;;;;;;;15.58;75.92;101172.38;4147322;28;20034;-68
2022/10/28 06:21:09;;;;;;;8.45;3.88;;;;;;;15.53;75.61;101188.09;4146185;28;20080;-68
2022/10/28 06:23:12;;;;;;;8.98;3.60;;;;;;;15.47;75.62;101195.91;4145503;28;20117;-67
2022/10/28 06:25:17;;;;;;;8.63;3.47;;;;;;;15.36;76.19;101206.31;4145230;28;20520;-68
2022/10/28 06:27:20;;;;;;;11.35;3.40;;;;;;;15.38;76.57;101212.47;4147306;28;20042;-67
2022/10/28 06:29:23;;;;;;;7.97;3.28;;;;;;;15.42;75.97;101206.38;4148310;28;20030;-67
2022/10/28 06:31:26;;;;;;;8.23;3.58;;;;;;;15.41;75.62;101206.38;4150435;28;20400;-68
2022/10/28 06:33:28;;;;;;;11.13;3.83;;;;;;;15.47;74.88;101209.03;4150158;28;20456;-68
2022/10/28 06:35:31;;;;;;;9.45;3.40;;;;;;;15.59;74.44;101208.22;4150423;28;20098;-67
2022/10/28 06:37:34;;;;;;;11.23;3.42;;;;;;;15.66;74.45;101205.63;4148088;28;20034;-67
2022/10/28 06:39:38;;;;;;;11.38;3.53;;;;;;;15.70;74.38;101204.78;4150220;28;20037;-67
2022/10/28 06:41:42;;;;;;;;;;;;;;;15.63;74.48;101213.47;4150713;28;20038;-67
2022/10/28 06:43:45;;;;;;;8.70;3.25;;;;;;;15.68;74.39;101219.63;4149935;28;19921;-68
2022/10/28 06:45:53;;;;;;;7.53;3.22;;;;;;;15.69;74.81;101208.25;4150260;28;20467;-67
2022/10/28 06:47:57;;;;;;;10.55;3.13;;;;;;;15.73;74.84;101211.78;4150189;28;20045;-68
2022/10/28 06:50:00;;;;;;;6.33;3.50;;;;;;;15.75;74.38;101209.19;4150152;28;20558;-67
2022/10/28 06:52:03;;;;;;;11.57;3.55;;;;;;;15.80;74.38;101220.56;4148977;28;20519;-67
2022/10/28 06:54:06;;;;;;;10.43;3.67;;;;;;;15.80;74.88;101215.34;4148405;28;20184;-68
2022/10/28 06:56:10;;;;;;;8.85;3.35;;;;;;;15.73;75.06;101218.78;4150064;28;20052;-67
2022/10/28 06:58:14;;;;;;;6.32;3.22;;;;;;;15.67;75.33;101227.50;4148854;28;20558;-67
2022/10/28 07:00:17;;;;;;;10.00;2.85;;;;;;;15.69;75.32;101218.75;4149937;28;20041;-67
2022/10/28 07:02:21;;;;;;;8.55;3.58;;;;;;;15.73;75.59;101214.41;4148778;28;20049;-67
2022/10/28 07:04:24;;;;;;;5.68;3.47;;;;;;;15.76;75.92;101224.91;4149579;28;20049;-67
2022/10/28 07:06:27;;;;;;;12.95;5.40;;;;;;;15.77;75.54;101221.44;4147685;28;20599;-67
2022/10/28 07:08:30;;;;;;;10.02;3.85;;;;;;;15.77;75.45;101218.81;4149804;28;20336;-67
2022/10/28 07:10:33;;;;;;;8.95;4.57;;;;;;;15.82;75.09;101214.47;4149750;28;20064;-67
2022/10/28 07:12:36;;;;;;;6.60;3.33;;;;;;;15.83;74.99;101218.88;4149802;28;20038;-67
2022/10/28 07:14:40;;;;;;;7.13;3.28;;;;;;;15.87;74.88;101232.84;4147181;28;21851;-68
2022/10/28 07:16:43;;;;;;;11.18;4.53;;;;;;;15.83;75.04;101245.09;4149618;28;20496;-67
2022/10/28 07:18:45;;;;;;;9.65;4.35;;;;;;;15.86;75.22;101246.84;4149610;28;20041;-68
2022/10/28 07:20:49;;;;;;;8.77;3.88;;;;;;;15.89;74.87;101241.63;4149752;28;20046;-67
2022/10/28 07:22:56;;;;;;;10.95;3.53;;;;;;;15.96;75.25;101240.78;4148666;28;20108;-68
2022/10/28 07:24:58;;;;;;;13.00;4.10;;;;;;;15.97;75.07;101239.88;4157523;28;20230;-67
2022/10/28 07:27:01;;;;;;;10.27;3.60;;;;;;;15.98;75.07;101238.16;4149571;28;20042;-68
2022/10/28 07:29:05;;;;;;;12.20;3.75;;;;;;;16.00;74.89;101239.94;4148429;28;20488;-67
2022/10/28 07:31:09;;;;;;;7.35;3.28;;;;;;;16.02;74.90;101239.94;4149540;28;20396;-67
2022/10/28 07:33:12;;;;;;;11.20;3.67;;;;;;;16.00;75.04;101245.19;4149354;28;20049;-67
2022/10/28 07:35:15;;;;;;;11.82;3.88;;;;;;;16.02;75.10;101253.91;4148134;28;20041;-67
2022/10/28 07:37:18;;;;;;;6.80;3.47;;;;;;;16.03;75.03;101253.06;4148415;28;20092;-67
2022/10/28 07:39:21;;;;;;;9.68;3.90;;;;;;;16.10;74.78;101250.44;4131930;28;20342;-67
2022/10/28 07:41:25;;;;;;;18.33;4.63;;;;;;;16.10;75.04;101246.06;4163843;28;20068;-69
2022/10/28 07:43:28;;;;;;;10.07;3.85;;;;;;;16.08;75.10;101241.69;4147985;28;20305;-67
2022/10/28 07:45:31;;;;;;;13.82;3.78;;;;;;;16.08;75.36;101239.94;4149162;28;20042;-67
2022/10/28 07:47:35;;;;;;;10.75;4.32;;;;;;;16.10;75.39;101239.97;4131736;28;20046;-67
2022/10/28 07:49:38;;;;;;;7.93;3.55;;;;;;;16.08;75.35;101249.56;4147958;28;20133;-67
2022/10/28 07:51:40;;;;;;;14.60;3.85;;;;;;;16.10;75.46;101243.44;4147874;28;20463;-67
2022/10/28 07:53:43;;;;;;;9.20;4.00;;;;;;;16.12;75.31;101243.44;4148786;28;20046;-67
2022/10/28 07:55:54;;;;;;;12.52;3.45;;;;;;;16.16;74.86;101247.84;4146809;28;20045;-68
2022/10/28 07:57:58;;;;;;;14.05;3.65;;;;;;;16.16;74.81;101246.09;4147876;28;20046;-67
2022/10/28 08:00:01;;;;;;;11.27;4.25;;;;;;;16.21;74.51;101249.63;4149011;28;20450;-67
2022/10/28 08:02:16;;;;;;;11.02;4.05;;;;;;;16.23;74.49;101255.72;4147773;28;20415;-67
2022/10/28 08:04:20;;;;;;;11.60;3.65;;;;;;;16.28;74.19;101254.88;4148650;28;20041;-67
2022/10/28 08:06:23;;;;;;;14.65;4.35;;;;;;;16.27;74.29;101254.00;4147657;28;20080;-67
2022/10/28 08:08:26;;;;;;;13.38;3.63;;;;;;;16.27;73.93;101261.03;4148862;28;20045;-68
2022/10/28 08:10:28;;;;;;;7.45;3.03;;;;;;;16.30;73.83;101255.78;4147744;28;20034;-67
2022/10/28 08:12:31;;;;;;;9.63;3.65;;;;;;;16.32;73.91;101254.88;4148820;28;20045;-67
2022/10/28 08:14:35;;;;;;;8.95;3.50;;;;;;;16.36;73.96;101247.91;4148371;28;20067;-67
2022/10/28 08:16:38;;;;;;;15.02;3.60;;;;;;;16.38;74.11;101251.41;4148779;28;20407;-68
2022/10/28 08:18:40;;;;;;;11.20;3.15;;;;;;;16.37;74.04;101247.91;4148065;28;20129;-67
2022/10/28 08:20:44;;;;;;;13.98;3.90;;;;;;;16.40;73.95;101242.69;4147190;28;20459;-67
2022/10/28 08:22:47;;;;;;;12.32;3.75;;;;;;;16.45;73.66;101247.94;4163762;28;20127;-67
2022/10/28 08:24:50;;;;;;;8.48;4.28;;;;;;;16.47;73.72;101246.22;4146036;28;20033;-67
2022/10/28 08:26:54;;;;;;;10.60;3.92;;;;;;;16.55;73.25;101238.34;4147410;28;20464;-67
2022/10/28 08:29:00;;;;;;;12.32;3.95;;;;;;;16.58;73.08;101246.22;4131233;28;20046;-68
2022/10/28 08:31:07;;;;;;;7.10;2.53;;;;;;;16.58;73.17;101235.72;4132353;28;20547;-68
2022/10/28 08:33:11;;;;;;;8.77;3.50;;;;;;;16.63;73.14;101241.88;4161537;28;20103;-68
2022/10/28 08:35:14;;;;;;;7.43;3.25;;;;;;;16.64;72.75;101248.84;4148279;28;20041;-68
2022/10/28 08:37:18;;;;;;;12.90;3.92;;;;;;;16.71;72.13;101245.38;4148518;28;20496;-68
2022/10/28 08:39:21;;;;;;;10.20;4.05;;;;;;;16.78;71.80;101235.75;4148485;28;20137;-68
2022/10/28 08:41:34;;;;;;;12.68;3.47;;;;;;;16.81;71.75;101246.25;4146116;28;20061;-68
2022/10/28 08:43:57;;;;;;;10.82;3.50;;;;;;;16.79;71.11;101239.25;4147948;28;20034;-68
2022/10/28 08:46:08;;;;;;;6.28;2.78;;;;;;;16.88;70.80;101242.81;4131819;28;20601;-68
2022/10/28 08:48:20;;;;;;;10.35;3.45;;;;;;;16.93;70.81;101242.78;4148345;28;20049;-68
2022/10/28 08:50:26;;;;;;;8.07;3.33;;;;;;;16.97;70.52;101239.31;4148440;28;20034;-68
2022/10/28 08:52:35;;;;;;;7.93;3.40;;;;;;;16.97;71.01;101234.03;4130216;28;20046;-68
2022/10/28 08:54:46;;;;;;;17.23;3.42;;;;;;;17.04;70.95;101233.19;4146077;28;20165;-68
2022/10/28 08:56:53;;;;;;;10.80;3.88;;;;;;;17.06;70.78;101236.66;4146492;28;20029;-68
2022/10/28 08:59:00;;;;;;;9.65;3.42;;;;;;;17.06;71.06;101231.41;4148190;28;20052;-68
2022/10/28 09:01:08;;;;;;;8.55;3.03;;;;;;;17.07;70.70;101232.31;4146937;28;20431;-68
2022/10/28 09:03:17;;;;;;;10.38;3.50;;;;;;;17.00;70.91;101241.94;4147909;28;20385;-68
2022/10/28 09:05:22;;;;;;;10.05;2.78;;;;;;;17.05;70.25;101241.91;4148091;28;20042;-68
2022/10/28 09:07:25;;;;;;;10.65;4.03;;;;;;;17.10;70.22;101242.81;4148075;28;20073;-68
2022/10/28 09:09:29;;;;;;;9.40;3.30;;;;;;;17.16;69.77;101241.94;4145747;28;20431;-68
2022/10/28 09:12:00;;;;;;;8.00;3.03;;;;;;;17.24;69.30;101240.16;4147890;28;20116;-68
2022/10/28 09:14:16;;;;;;;7.47;2.83;;;;;;;17.20;69.68;101233.16;4130030;28;20046;-68
2022/10/28 09:16:32;;;;;;;13.50;3.10;;;;;;;17.24;69.75;101233.16;4131762;28;20038;-68
2022/10/28 09:18:50;;;;;;;14.98;3.45;;;;;;;17.25;69.01;101232.28;4131665;28;20088;-68
2022/10/28 09:20:54;;;;;;;10.88;2.92;;;;;;;17.28;69.48;101231.41;4142311;28;20038;-68
2022/10/28 09:22:59;;;;;;;11.70;3.47;;;;;;;17.28;70.60;101242.78;4147812;28;20112;-68
2022/10/28 09:25:12;;;;;;;7.57;3.15;;;;;;;17.28;70.00;101247.16;4147624;28;20092;-68
2022/10/28 09:27:38;;;;;;;13.00;3.38;;;;;;;17.32;69.99;101245.41;4130387;28;20054;-68
2022/10/28 09:29:50;;;;;;;8.55;3.25;;;;;;;17.32;70.13;101251.56;4146484;28;20056;-68
2022/10/28 09:31:58;;;;;;;9.07;4.00;;;;;;;17.32;69.39;101254.19;4146574;28;20084;-68
2022/10/28 09:34:12;;;;;;;11.30;3.70;;;;;;;17.38;69.54;101237.53;4145224;28;20045;-68
2022/10/28 09:36:19;;;;;;;12.70;3.58;;;;;;;17.43;69.65;101233.13;4146462;28;20052;-68
2022/10/28 09:38:27;;;;;;;9.88;3.45;;;;;;;17.41;70.25;101235.75;4147986;28;20052;-68
2022/10/28 09:40:34;;;;;;;10.75;3.90;;;;;;;17.48;69.67;101243.63;4147833;28;20042;-68